createdAt,value
2023-02-16T00:01:16.127Z,18.23
2023-02-16T00:03:42.988Z,16.90
2023-02-16T00:06:14.505Z,16.33
2023-02-16T00:08:41.141Z,16.53
2023-02-16T00:11:38.892Z,17.23
2023-02-16T00:14:09.380Z,17.67
2023-02-16T00:16:36.125Z,17.80
2023-02-16T00:19:13.527Z,18.00
2023-02-16T00:21:42.468Z,15.23
2023-02-16T00:24:09.130Z,17.07
2023-02-16T00:26:35.753Z,15.67
2023-02-16T00:29:02.689Z,17.33
2023-02-16T00:31:32.975Z,18.10
2023-02-16T00:34:03.617Z,15.27
2023-02-16T00:36:32.551Z,15.00
2023-02-16T00:39:00.187Z,17.27
2023-02-16T00:41:45.528Z,17.73
2023-02-16T00:44:17.948Z,17.17
2023-02-16T00:46:45.343Z,16.47
2023-02-16T00:49:16.497Z,16.00
2023-02-16T00:51:43.706Z,17.23
2023-02-16T00:54:10.416Z,17.13
2023-02-16T00:56:37.296Z,15.93
2023-02-16T00:59:06.401Z,17.10
2023-02-16T01:01:34.258Z,17.63
2023-02-16T01:04:03.504Z,15.97
2023-02-16T01:06:48.916Z,15.47
2023-02-16T01:09:36.145Z,15.63
2023-02-16T01:12:05.019Z,16.27
2023-02-16T01:14:33.025Z,15.60
2023-02-16T01:16:59.665Z,16.50
2023-02-16T01:19:26.382Z,14.10
2023-02-16T01:21:52.978Z,15.43
2023-02-16T01:24:19.605Z,14.57
2023-02-16T01:26:49.473Z,16.07
2023-02-16T01:29:18.987Z,15.03
2023-02-16T01:31:46.277Z,15.50
2023-02-16T01:34:13.548Z,15.40
2023-02-16T01:36:43.500Z,15.77
2023-02-16T01:39:13.401Z,15.30
2023-02-16T01:42:03.405Z,16.20
2023-02-16T01:44:52.671Z,14.30
2023-02-16T01:47:30.864Z,14.40
2023-02-16T01:49:57.549Z,16.03
2023-02-16T01:52:36.144Z,16.33
2023-02-16T01:55:17.004Z,15.53
2023-02-16T01:57:49.821Z,14.73
2023-02-16T02:00:22.927Z,14.90
2023-02-16T02:02:52.928Z,14.50
2023-02-16T02:05:35.741Z,13.10
2023-02-16T02:08:35.838Z,14.77
2023-02-16T02:11:24.135Z,16.23
2023-02-16T02:13:56.774Z,14.87
2023-02-16T02:16:25.630Z,15.30
2023-02-16T02:18:52.286Z,14.70
2023-02-16T02:21:47.472Z,15.87
2023-02-16T02:24:48.077Z,14.73
2023-02-16T02:27:27.175Z,14.40
2023-02-16T02:30:02.155Z,14.10
2023-02-16T02:32:47.675Z,14.97
2023-02-16T02:35:31.289Z,14.90
2023-02-16T02:38:11.422Z,14.27
2023-02-16T02:41:01.638Z,13.83
2023-02-16T02:43:34.607Z,13.57
2023-02-16T02:46:02.959Z,15.00
2023-02-16T02:48:30.927Z,14.37
2023-02-16T02:51:18.591Z,14.93
2023-02-16T02:53:49.231Z,14.37
2023-02-16T02:56:35.863Z,15.80
2023-02-16T02:59:27.160Z,14.17
2023-02-16T03:01:57.360Z,14.50
2023-02-16T03:04:26.751Z,14.67
2023-02-16T03:06:56.019Z,15.70
2023-02-16T03:09:22.961Z,14.13
2023-02-16T03:12:08.805Z,15.97
2023-02-16T03:14:39.715Z,15.23
2023-02-16T03:17:46.167Z,15.70
2023-02-16T03:20:33.882Z,15.53
2023-02-16T03:23:20.315Z,13.37
2023-02-16T03:26:06.066Z,16.00
2023-02-16T03:28:53.776Z,14.23
2023-02-16T03:31:23.546Z,15.50
2023-02-16T03:33:55.066Z,15.00
2023-02-16T03:36:27.372Z,14.33
2023-02-16T03:38:55.465Z,14.17
2023-02-16T03:41:22.490Z,14.23
2023-02-16T03:43:49.304Z,13.93
2023-02-16T03:46:16.255Z,14.80
2023-02-16T03:48:43.078Z,13.77
2023-02-16T03:51:09.689Z,15.37
2023-02-16T03:53:36.324Z,15.13
2023-02-16T03:56:03.080Z,16.07
2023-02-16T03:58:29.688Z,15.27
2023-02-16T04:00:57.009Z,14.90
2023-02-16T04:03:23.651Z,14.03
2023-02-16T04:05:50.385Z,14.10
2023-02-16T04:08:17.106Z,14.80
2023-02-16T04:10:44.343Z,15.37
2023-02-16T04:13:10.963Z,16.03
2023-02-16T04:15:37.628Z,15.20
2023-02-16T04:18:04.304Z,14.80
2023-02-16T04:20:32.413Z,14.87
2023-02-16T04:22:59.376Z,14.93
2023-02-16T04:25:26.579Z,14.83
2023-02-16T04:27:53.651Z,15.43
2023-02-16T04:30:22.770Z,13.53
2023-02-16T04:32:49.522Z,13.97
2023-02-16T04:35:16.571Z,14.70
2023-02-16T04:37:43.187Z,13.40
2023-02-16T04:40:15.065Z,14.57
2023-02-16T04:42:42.956Z,14.33
2023-02-16T04:45:10.318Z,14.10
2023-02-16T04:47:37.221Z,14.23
2023-02-16T04:50:04.385Z,15.13
2023-02-16T04:52:31.080Z,14.50
2023-02-16T04:54:57.762Z,15.60
2023-02-16T04:57:24.991Z,15.97
2023-02-16T04:59:51.628Z,15.37
2023-02-16T05:02:18.258Z,15.10
2023-02-16T05:04:45.027Z,16.87
2023-02-16T05:07:11.702Z,15.20
2023-02-16T05:09:38.405Z,16.13
2023-02-16T05:12:23.757Z,16.17
2023-02-16T05:14:50.625Z,13.67
2023-02-16T05:17:22.883Z,16.03
2023-02-16T05:19:57.469Z,16.73
2023-02-16T05:22:24.644Z,16.67
2023-02-16T05:24:51.550Z,14.70
2023-02-16T05:27:24.403Z,15.93
2023-02-16T05:29:51.295Z,18.20
2023-02-16T05:32:18.239Z,16.93
2023-02-16T05:34:45.600Z,17.93
2023-02-16T05:37:13.975Z,17.87
2023-02-16T05:39:41.167Z,16.80
2023-02-16T05:42:07.925Z,18.33
2023-02-16T05:44:34.595Z,16.53
2023-02-16T05:47:01.258Z,16.80
2023-02-16T05:49:27.984Z,15.73
2023-02-16T05:51:54.617Z,16.87
2023-02-16T05:54:21.378Z,17.57
2023-02-16T05:56:50.595Z,18.83
2023-02-16T05:59:17.585Z,17.20
2023-02-16T06:01:47.942Z,15.63
2023-02-16T06:04:17.294Z,17.07
2023-02-16T06:06:44.126Z,15.60
2023-02-16T06:09:10.768Z,16.83
2023-02-16T06:11:37.507Z,16.93
2023-02-16T06:14:06.529Z,16.87
2023-02-16T06:16:34.565Z,17.80
2023-02-16T06:19:01.973Z,17.83
2023-02-16T06:21:29.293Z,17.37
2023-02-16T06:23:55.953Z,17.27
2023-02-16T06:26:22.890Z,18.60
2023-02-16T06:28:49.561Z,17.47
2023-02-16T06:31:16.318Z,16.97
2023-02-16T06:33:43.437Z,16.30
2023-02-16T06:36:10.910Z,16.60
2023-02-16T06:38:37.796Z,18.37
2023-02-16T06:41:04.795Z,18.07
2023-02-16T06:43:31.693Z,17.60
2023-02-16T06:45:58.739Z,16.77
2023-02-16T06:48:25.349Z,16.23
2023-02-16T06:50:52.145Z,16.47
2023-02-16T06:53:18.914Z,16.70
2023-02-16T06:55:45.653Z,16.73
2023-02-16T06:58:12.651Z,18.17
2023-02-16T07:00:39.519Z,17.93
2023-02-16T07:03:06.376Z,17.13
2023-02-16T07:05:33.276Z,17.93
2023-02-16T07:07:59.949Z,17.40
2023-02-16T07:10:28.065Z,20.30
2023-02-16T07:12:57.477Z,19.00
2023-02-16T07:15:24.092Z,19.30
2023-02-16T07:17:50.716Z,17.77
2023-02-16T07:20:18.528Z,17.90
2023-02-16T07:22:45.097Z,18.73
2023-02-16T07:25:11.829Z,19.13
2023-02-16T07:27:38.507Z,18.37
2023-02-16T07:30:05.971Z,18.87
2023-02-16T07:32:32.606Z,18.33
2023-02-16T07:34:59.260Z,19.97
2023-02-16T07:37:25.969Z,19.10
2023-02-16T07:39:53.368Z,18.43
2023-02-16T07:42:20.623Z,20.63
2023-02-16T07:44:47.468Z,18.60
2023-02-16T07:47:14.542Z,18.80
2023-02-16T07:49:41.485Z,19.00
2023-02-16T07:52:08.199Z,18.00
2023-02-16T07:54:34.983Z,22.13
2023-02-16T07:57:01.618Z,19.70
2023-02-16T07:59:28.297Z,19.67
2023-02-16T08:01:55.349Z,20.27
2023-02-16T08:04:24.941Z,19.57
2023-02-16T08:06:51.894Z,22.47
2023-02-16T08:09:18.700Z,21.80
2023-02-16T08:11:45.428Z,21.10
2023-02-16T08:14:12.267Z,23.07
2023-02-16T08:16:39.236Z,21.13
2023-02-16T08:19:06.138Z,23.60
2023-02-16T08:21:34.185Z,23.10
2023-02-16T08:24:02.670Z,24.47
2023-02-16T08:26:39.306Z,23.60
2023-02-16T08:29:10.176Z,21.73
2023-02-16T08:31:38.429Z,24.30
2023-02-16T08:34:06.128Z,26.40
2023-02-16T08:36:35.719Z,25.90
2023-02-16T08:39:05.159Z,25.13
2023-02-16T08:41:34.189Z,27.97
2023-02-16T08:44:01.190Z,27.20
2023-02-16T08:46:29.438Z,25.17
2023-02-16T08:49:00.352Z,28.47
2023-02-16T08:51:32.638Z,27.20
2023-02-16T08:54:00.190Z,26.70
2023-02-16T08:56:29.675Z,27.37
2023-02-16T08:58:57.322Z,26.87
2023-02-16T09:01:24.050Z,27.43
2023-02-16T09:03:51.183Z,28.37
2023-02-16T09:06:22.674Z,28.83
2023-02-16T09:08:53.938Z,29.33
2023-02-16T09:11:21.458Z,30.90
2023-02-16T09:13:48.367Z,28.93
2023-02-16T09:16:20.240Z,29.77
2023-02-16T09:18:47.099Z,31.43
2023-02-16T09:21:16.040Z,32.10
2023-02-16T09:23:44.919Z,29.90
2023-02-16T09:26:11.912Z,31.20
2023-02-16T09:28:39.950Z,30.70
2023-02-16T09:31:15.402Z,29.50
2023-02-16T09:33:43.239Z,27.73
2023-02-16T09:36:11.847Z,26.67
2023-02-16T09:38:39.632Z,26.93
2023-02-16T09:41:21.440Z,29.33
2023-02-16T09:43:55.826Z,27.73
2023-02-16T09:46:24.405Z,28.10
2023-02-16T09:48:52.859Z,27.40
2023-02-16T09:51:33.933Z,26.83
2023-02-16T09:54:10.868Z,26.07
2023-02-16T09:56:47.213Z,26.07
2023-02-16T09:59:24.752Z,24.83
2023-02-16T10:02:01.765Z,25.47
2023-02-16T10:04:39.169Z,23.47
2023-02-16T10:07:39.443Z,27.73
2023-02-16T10:10:07.670Z,23.80
2023-02-16T10:12:41.370Z,23.77
2023-02-16T10:17:59.380Z,22.97
2023-02-16T10:20:33.150Z,22.47
2023-02-16T10:23:12.090Z,22.35
2023-02-16T10:25:57.606Z,23.43
2023-02-16T10:28:43.055Z,22.73
2023-02-16T10:31:28.592Z,20.83
2023-02-16T10:34:23.340Z,24.87
2023-02-16T10:37:02.556Z,22.90
2023-02-16T10:39:38.360Z,24.67
2023-02-16T10:42:18.017Z,22.93
2023-02-16T10:44:49.176Z,23.70
2023-02-16T10:47:28.515Z,23.57
2023-02-16T10:49:55.432Z,25.07
2023-02-16T10:52:22.315Z,21.67
2023-02-16T10:54:49.444Z,23.67
2023-02-16T10:57:36.406Z,23.90
2023-02-16T11:00:07.030Z,23.90
2023-02-16T11:02:39.276Z,25.50
2023-02-16T11:05:27.708Z,21.97
2023-02-16T11:08:01.492Z,23.80
2023-02-16T11:10:41.450Z,23.23
2023-02-16T11:13:19.915Z,21.33
2023-02-16T11:15:51.898Z,23.67
2023-02-16T11:18:36.488Z,22.60
2023-02-16T11:23:34.505Z,24.30
2023-02-16T11:26:10.401Z,24.37
2023-02-16T11:28:38.229Z,22.93
2023-02-16T11:31:18.794Z,24.80
2023-02-16T11:34:06.660Z,23.13
2023-02-16T11:36:42.450Z,22.63
2023-02-16T11:39:37.181Z,23.63
2023-02-16T11:42:07.777Z,24.95
2023-02-16T11:44:37.344Z,24.23
2023-02-16T11:47:22.421Z,26.03
2023-02-16T11:49:51.861Z,24.43
2023-02-16T11:52:24.561Z,25.67
2023-02-16T11:54:53.752Z,22.48
2023-02-16T11:57:29.709Z,28.63
2023-02-16T11:59:57.632Z,26.95
2023-02-16T12:02:35.995Z,26.95
2023-02-16T12:05:14.507Z,22.98
2023-02-16T12:08:06.481Z,21.50
2023-02-16T12:10:42.140Z,23.88
2023-02-16T12:13:29.182Z,23.80
2023-02-16T12:16:00.772Z,24.48
2023-02-16T12:18:38.916Z,23.10
2023-02-16T12:21:22.462Z,23.25
2023-02-16T12:24:06.927Z,22.55
2023-02-16T12:26:38.499Z,26.75
2023-02-16T12:29:21.120Z,24.48
2023-02-16T12:32:08.995Z,24.33
2023-02-16T12:34:50.962Z,22.65
2023-02-16T12:37:29.644Z,22.10
2023-02-16T12:40:20.685Z,22.20
2023-02-16T12:43:08.139Z,22.33
2023-02-16T12:45:41.013Z,23.88
2023-02-16T12:48:16.823Z,22.00
2023-02-16T12:50:44.995Z,24.00
2023-02-16T12:53:14.628Z,22.92
2023-02-16T12:55:49.044Z,21.42
2023-02-16T12:58:33.876Z,23.40
2023-02-16T13:01:23.850Z,24.52
2023-02-16T13:03:56.379Z,23.38
2023-02-16T13:06:33.948Z,21.35
2023-02-16T13:09:19.223Z,23.45
2023-02-16T13:12:06.865Z,22.85
2023-02-16T13:14:36.517Z,22.92
2023-02-16T13:17:10.362Z,23.42
2023-02-16T13:19:37.026Z,21.52
2023-02-16T13:22:28.039Z,22.15
2023-02-16T13:25:04.198Z,23.45
2023-02-16T13:27:47.999Z,22.60
2023-02-16T13:30:40.342Z,20.02
2023-02-16T13:33:16.948Z,20.65
2023-02-16T13:36:19.154Z,21.95
2023-02-16T13:39:09.806Z,21.05
2023-02-16T13:42:18.455Z,23.13
2023-02-16T13:44:54.511Z,22.30
2023-02-16T13:47:28.571Z,21.98
2023-02-16T13:50:03.708Z,22.23
2023-02-16T13:52:35.325Z,21.90
2023-02-16T13:55:05.146Z,21.55
2023-02-16T13:58:08.095Z,19.52
2023-02-16T14:00:43.860Z,20.70
2023-02-16T14:03:16.470Z,21.77
2023-02-16T14:05:45.033Z,20.88
2023-02-16T14:08:11.545Z,21.85
2023-02-16T14:10:53.488Z,21.85
2023-02-16T14:13:38.480Z,21.63
2023-02-16T14:16:17.443Z,21.77
2023-02-16T14:18:55.098Z,20.88
2023-02-16T14:21:27.873Z,20.70
2023-02-16T14:23:56.437Z,22.00
2023-02-16T14:26:23.743Z,22.67
2023-02-16T14:29:13.117Z,22.58
2023-02-16T14:31:44.382Z,20.90
2023-02-16T14:34:35.716Z,21.80
2023-02-16T14:37:16.244Z,19.50
2023-02-16T14:40:06.575Z,20.02
2023-02-16T14:42:33.008Z,21.27
2023-02-16T14:45:19.680Z,20.38
2023-02-16T14:47:56.924Z,20.55
2023-02-16T14:51:01.319Z,19.20
2023-02-16T14:53:46.399Z,19.98
2023-02-16T14:56:39.449Z,20.70
2023-02-16T14:59:35.446Z,18.58
2023-02-16T15:02:31.947Z,18.65
2023-02-16T15:04:58.820Z,21.85
2023-02-16T15:07:28.019Z,19.65
2023-02-16T15:09:58.887Z,19.45
2023-02-16T15:12:29.346Z,18.65
2023-02-16T15:15:02.075Z,20.27
2023-02-16T15:17:38.254Z,19.30
2023-02-16T15:20:27.527Z,20.30
2023-02-16T15:22:59.524Z,21.27
2023-02-16T15:25:38.505Z,19.63
2023-02-16T15:28:17.548Z,19.87
2023-02-16T15:30:49.979Z,17.47
2023-02-16T15:33:25.520Z,19.20
2023-02-16T15:35:55.591Z,19.07
2023-02-16T15:38:33.819Z,20.60
2023-02-16T15:41:06.742Z,18.83
2023-02-16T15:43:47.633Z,18.00
2023-02-16T15:46:33.832Z,18.75
2023-02-16T15:49:26.348Z,20.07
2023-02-16T15:51:55.731Z,20.17
2023-02-16T15:54:25.151Z,19.33
2023-02-16T15:56:54.244Z,18.20
2023-02-16T15:59:35.812Z,18.67
2023-02-16T16:02:15.850Z,17.30
2023-02-16T16:04:46.575Z,17.30
2023-02-16T16:07:15.190Z,18.80
2023-02-16T16:09:42.528Z,17.13
2023-02-16T16:12:13.349Z,16.13
2023-02-16T16:14:44.205Z,16.90
2023-02-16T16:17:15.576Z,16.13
2023-02-16T16:19:42.509Z,16.17
2023-02-16T16:22:29.721Z,17.13
2023-02-16T16:24:56.533Z,17.30
2023-02-16T16:27:36.658Z,16.67
2023-02-16T16:30:15.347Z,17.03
2023-02-16T16:32:42.100Z,17.23
2023-02-16T16:35:39.182Z,17.13
2023-02-16T16:38:17.671Z,16.97
2023-02-16T16:40:50.711Z,16.97
2023-02-16T16:44:18.652Z,16.93
2023-02-16T16:46:44.361Z,17.97
2023-02-16T16:49:46.246Z,16.57
2023-02-16T16:53:31.157Z,15.30
2023-02-16T16:55:58.846Z,15.93
2023-02-16T16:58:26.252Z,15.77
2023-02-16T17:00:52.862Z,17.20
2023-02-16T17:03:20.388Z,17.67
2023-02-16T17:05:47.413Z,17.37
2023-02-16T17:08:14.061Z,16.03
2023-02-16T17:10:41.530Z,15.30
2023-02-16T17:13:08.256Z,14.67
2023-02-16T17:15:45.686Z,15.37
2023-02-16T17:18:17.768Z,15.57
2023-02-16T17:20:45.473Z,15.33
2023-02-16T17:23:13.697Z,16.43
2023-02-16T17:25:40.735Z,16.37
2023-02-16T17:28:07.850Z,16.40
2023-02-16T17:30:35.333Z,15.17
2023-02-16T17:33:02.874Z,15.70
2023-02-16T17:35:30.828Z,15.90
2023-02-16T17:37:57.538Z,15.70
2023-02-16T17:40:24.795Z,17.67
2023-02-16T17:42:51.914Z,17.07
2023-02-16T17:45:24.038Z,16.17
2023-02-16T17:47:52.986Z,17.03
2023-02-16T17:50:20.857Z,16.00
2023-02-16T17:52:47.595Z,16.10
2023-02-16T17:55:14.392Z,16.73
2023-02-16T17:57:41.128Z,16.07
2023-02-16T18:00:09.299Z,17.00
2023-02-16T18:02:35.887Z,16.00
2023-02-16T18:05:02.675Z,16.47
2023-02-16T18:07:29.435Z,16.20
2023-02-16T18:09:56.054Z,16.73
2023-02-16T18:12:22.644Z,16.53
2023-02-16T18:14:49.253Z,14.53
2023-02-16T18:17:16.467Z,15.60
2023-02-16T18:19:43.201Z,16.37
2023-02-16T18:22:12.953Z,16.10
2023-02-16T18:24:39.887Z,15.57
2023-02-16T18:27:12.619Z,14.00
2023-02-16T18:29:49.772Z,15.67
2023-02-16T18:32:29.551Z,14.00
2023-02-16T18:34:59.077Z,14.57
2023-02-16T18:37:28.533Z,14.60
2023-02-16T18:40:02.896Z,14.43
2023-02-16T18:42:32.011Z,15.73
2023-02-16T18:45:07.355Z,15.20
2023-02-16T18:47:54.286Z,16.43
2023-02-16T18:50:24.229Z,15.90
2023-02-16T18:52:54.044Z,16.47
2023-02-16T18:55:37.571Z,16.27
2023-02-16T18:58:08.108Z,16.17
2023-02-16T19:00:41.535Z,18.37
2023-02-16T19:03:13.195Z,18.00
2023-02-16T19:05:39.939Z,17.80
2023-02-16T19:08:06.840Z,19.40
2023-02-16T19:10:33.887Z,19.40
2023-02-16T19:13:02.107Z,19.00
2023-02-16T19:15:28.980Z,17.30
2023-02-16T19:17:55.700Z,17.63
2023-02-16T19:20:22.329Z,18.80
2023-02-16T19:22:49.328Z,16.73
2023-02-16T19:25:16.434Z,18.37
2023-02-16T19:27:44.189Z,20.00
2023-02-16T19:30:11.382Z,18.53
2023-02-16T19:32:40.923Z,18.60
2023-02-16T19:35:09.410Z,19.07
2023-02-16T19:37:36.284Z,19.53
2023-02-16T19:40:03.896Z,16.97
2023-02-16T19:42:30.546Z,20.73
2023-02-16T19:44:57.199Z,17.70
2023-02-16T19:47:23.885Z,17.83
2023-02-16T19:49:50.552Z,17.17
2023-02-16T19:52:17.450Z,17.73
2023-02-16T19:54:44.173Z,15.73
2023-02-16T19:57:10.822Z,18.27
2023-02-16T19:59:37.495Z,16.73
2023-02-16T20:02:04.203Z,16.80
2023-02-16T20:04:30.845Z,19.17
2023-02-16T20:06:57.507Z,17.07
2023-02-16T20:09:24.648Z,17.80
2023-02-16T20:11:51.784Z,19.53
2023-02-16T20:14:18.746Z,18.07
2023-02-16T20:16:45.372Z,18.70
2023-02-16T20:19:12.012Z,18.03
2023-02-16T20:21:40.862Z,19.87
2023-02-16T20:24:07.689Z,17.00
2023-02-16T20:26:37.600Z,19.07
2023-02-16T20:29:06.716Z,19.57
2023-02-16T20:31:48.720Z,19.60
2023-02-16T20:34:15.556Z,19.47
2023-02-16T20:36:42.773Z,20.57
2023-02-16T20:39:09.728Z,19.27
2023-02-16T20:41:36.339Z,20.87
2023-02-16T20:44:03.786Z,20.17
2023-02-16T20:46:35.301Z,19.60
2023-02-16T20:49:02.020Z,21.27
2023-02-16T20:51:28.743Z,20.70
2023-02-16T20:53:55.419Z,19.67
2023-02-16T20:56:24.869Z,20.57
2023-02-16T20:58:53.776Z,20.37
2023-02-16T21:01:30.490Z,20.20
2023-02-16T21:03:58.901Z,22.53
2023-02-16T21:06:26.369Z,22.70
2023-02-16T21:08:53.186Z,21.43
2023-02-16T21:11:19.796Z,22.43
2023-02-16T21:13:47.008Z,22.47
2023-02-16T21:16:16.865Z,21.90
2023-02-16T21:18:43.868Z,21.57
2023-02-16T21:21:15.477Z,23.50
2023-02-16T21:23:48.041Z,22.80
2023-02-16T21:26:15.979Z,22.80
2023-02-16T21:28:42.682Z,21.37
2023-02-16T21:31:15.482Z,22.93
2023-02-16T21:33:42.937Z,22.43
2023-02-16T21:36:12.718Z,23.00
2023-02-16T21:38:40.444Z,22.40
2023-02-16T21:41:29.610Z,22.80
2023-02-16T21:43:58.193Z,23.17
2023-02-16T21:46:25.820Z,22.43
2023-02-16T21:48:53.344Z,24.40
2023-02-16T21:51:22.287Z,23.33
2023-02-16T21:53:49.076Z,23.83
2023-02-16T21:56:30.566Z,20.57
2023-02-16T21:58:57.965Z,22.17
2023-02-16T22:01:28.049Z,21.87
2023-02-16T22:03:59.364Z,22.97
2023-02-16T22:06:34.396Z,23.33
2023-02-16T22:09:04.941Z,23.13
2023-02-16T22:11:33.334Z,21.63
2023-02-16T22:14:04.190Z,22.53
2023-02-16T22:16:32.610Z,23.27
2023-02-16T22:19:01.847Z,22.63
2023-02-16T22:21:29.298Z,22.00
2023-02-16T22:23:59.556Z,21.43
2023-02-16T22:26:29.053Z,21.50
2023-02-16T22:29:01.515Z,21.07
2023-02-16T22:31:28.244Z,21.80
2023-02-16T22:34:00.070Z,20.90
2023-02-16T22:36:26.795Z,22.53
2023-02-16T22:38:54.028Z,21.47
2023-02-16T22:41:23.847Z,22.43
2023-02-16T22:44:01.180Z,22.77
2023-02-16T22:46:31.962Z,25.37
2023-02-16T22:49:01.750Z,21.63
2023-02-16T22:51:29.183Z,22.63
2023-02-16T22:53:57.991Z,21.77
2023-02-16T22:56:26.801Z,20.63
2023-02-16T22:58:56.482Z,21.00
2023-02-16T23:01:26.021Z,20.37
2023-02-16T23:03:57.452Z,22.90
2023-02-16T23:06:30.144Z,21.40
2023-02-16T23:08:59.270Z,22.77
2023-02-16T23:11:26.857Z,22.23
2023-02-16T23:13:53.700Z,22.93
2023-02-16T23:16:23.176Z,21.87
2023-02-16T23:18:49.917Z,21.57
2023-02-16T23:21:31.010Z,21.00
2023-02-16T23:23:58.571Z,21.53
2023-02-16T23:26:27.494Z,19.57
2023-02-16T23:28:55.711Z,17.57
2023-02-16T23:31:22.996Z,19.00
2023-02-16T23:33:49.880Z,20.80
2023-02-16T23:36:16.597Z,19.63
2023-02-16T23:38:45.681Z,20.57
2023-02-16T23:41:13.970Z,18.57
2023-02-16T23:43:45.885Z,20.47
2023-02-16T23:46:12.682Z,19.20
2023-02-16T23:48:39.438Z,19.20
2023-02-16T23:51:06.347Z,17.77
2023-02-16T23:53:36.322Z,19.97
2023-02-16T23:56:15.348Z,21.93
2023-02-16T23:58:42.921Z,22.30
